Time;durP1;ratioP1;P1;durP2;ratioP2;P2;SDS_P1;SDS_P2;PMS_P1;PMS_P2;Temp;Humidity;BMP_temperature;BMP_pressure;BME280_temperature;BME280_humidity;BME280_pressure;Samples;Min_cycle;Max_cycle;Signal;HPM_P1;HPM_P2
2023/06/02 00:01:15;;;;;;;;;;;;;;;19.25;50.34;98168.56;7386794;19;19922;-80
2023/06/02 00:03:44;;;;;;;;;;;;;;;19.21;50.75;98164.66;7383165;19;19919;-80
2023/06/02 00:06:14;;;;;;;;;;;;;;;19.19;50.53;98164.84;7379192;19;19911;-79
2023/06/02 00:08:43;;;;;;;;;;;;;;;19.13;50.35;98167.59;7385141;19;19994;-78
2023/06/02 00:11:11;;;;;;;;;;;;;;;19.04;46.81;98165.16;7390459;19;19922;-80
2023/06/02 00:13:42;;;;;;;;;;;;;;;19.06;48.38;98170.28;7387001;19;19914;-79
2023/06/02 00:16:09;;;;;;;;;;;;;;;19.05;48.08;98163.31;7389766;19;20380;-80
2023/06/02 00:18:37;;;;;;;;;;;;;;;18.89;46.69;98166.50;7387680;19;19933;-79
2023/06/02 00:21:05;;;;;;;;;;;;;;;18.87;49.65;98161.34;7386589;19;19990;-78
2023/06/02 00:23:32;;;;;;;;;;;;;;;18.82;47.38;98163.84;7383225;19;19946;-79
2023/06/02 00:26:00;;;;;;;;;;;;;;;18.84;49.99;98167.13;7384435;19;19922;-78
2023/06/02 00:28:27;;;;;;;;;;;;;;;18.73;46.80;98165.91;7383287;19;20371;-80
2023/06/02 00:30:54;;;;;;;;;;;;;;;18.75;48.29;98160.38;7386180;19;22418;-78
2023/06/02 00:33:28;;;;;;;;;;;;;;;18.75;47.95;98161.19;7384212;19;20328;-80
2023/06/02 00:35:54;;;;;;;;;;;;;;;18.75;48.32;98163.88;7389702;19;19991;-79
2023/06/02 00:38:21;;;;;;;;;;;;;;;18.73;50.14;98165.09;7379052;19;19978;-79
2023/06/02 00:40:48;;;;;;;;;;;;;;;18.68;49.82;98162.22;7389793;19;20307;-80
2023/06/02 00:43:15;;;;;;;;;;;;;;;18.63;49.07;98171.72;7389354;19;20371;-79
2023/06/02 00:45:44;;;;;;;;;;;;;;;18.54;48.52;98174.88;7384082;19;19914;-78
2023/06/02 00:48:10;;;;;;;;;;;;;;;18.54;48.61;98170.31;7385920;19;19963;-78
2023/06/02 00:50:38;;;;;;;;;;;;;;;18.52;48.58;98171.56;7388897;19;19923;-79
2023/06/02 00:53:07;;;;;;;;;;;;;;;18.47;48.44;98174.06;7384227;19;19998;-78
2023/06/02 00:55:34;;;;;;;;;;;;;;;18.43;49.05;98174.47;7382679;19;19923;-80
2023/06/02 00:58:04;;;;;;;;;;;;;;;18.41;48.85;98165.84;7386152;19;19922;-78
2023/06/02 01:00:36;;;;;;;;;;;;;;;18.39;50.13;98165.22;7389999;19;19939;-80
2023/06/02 01:03:04;;;;;;;;;;;;;;;18.35;48.71;98171.19;7389060;19;19946;-79
2023/06/02 01:05:31;;;;;;;;;;;;;;;18.19;48.16;98167.13;7386160;19;19919;-80
2023/06/02 01:07:59;;;;;;;;;;;;;;;18.24;49.05;98167.31;7387947;19;19930;-79
2023/06/02 01:10:26;;;;;;;;;;;;;;;18.13;49.55;98163.44;7386698;19;19915;-78
2023/06/02 01:12:56;;;;;;;;;;;;;;;18.13;49.02;98168.78;7385594;19;19943;-79
2023/06/02 01:15:23;;;;;;;;;;;;;;;18.03;48.23;98162.22;7388647;19;19934;-78
2023/06/02 01:17:51;;;;;;;;;;;;;;;17.92;47.96;98163.66;7384821;19;19979;-78
2023/06/02 01:20:21;;;;;;;;;;;;;;;17.94;49.21;98156.25;7390446;19;20009;-81
2023/06/02 01:22:58;;;;;;;;;;;;;;;17.98;49.97;98169.03;7384097;19;19955;-78
2023/06/02 01:25:27;;;;;;;;;;;;;;;17.94;50.52;98169.66;7386760;19;19945;-79
2023/06/02 01:27:57;;;;;;;;;;;;;;;17.87;48.90;98177.66;7380026;19;19914;-78
2023/06/02 01:30:24;;;;;;;;;;;;;;;17.87;49.99;98176.84;7383955;19;19923;-79
2023/06/02 01:33:03;;;;;;;;;;;;;;;17.83;51.10;98168.41;7383783;19;19923;-79
2023/06/02 01:35:30;;;;;;;;;;;;;;;17.83;51.55;98173.78;7391252;19;19927;-79
2023/06/02 01:37:58;;;;;;;;;;;;;;;17.76;50.06;98167.56;7390429;19;19928;-78
2023/06/02 01:40:26;;;;;;;;;;;;;;;17.76;51.58;98167.56;7389615;19;19933;-78
2023/06/02 01:42:53;;;;;;;;;;;;;;;17.68;49.77;98170.47;7383440;19;19935;-77
2023/06/02 01:45:23;;;;;;;;;;;;;;;17.65;50.91;98169.00;7379107;19;22240;-80
2023/06/02 01:47:50;;;;;;;;;;;;;;;17.65;50.80;98168.19;7382297;19;20140;-79
2023/06/02 01:50:17;;;;;;;;;;;;;;;17.58;51.21;98162.00;7389000;19;19930;-78
2023/06/02 01:52:43;;;;;;;;;;;;;;;17.57;50.32;98165.72;7387075;19;19925;-79
2023/06/02 01:55:10;;;;;;;;;;;;;;;17.52;49.23;98161.81;7386714;19;20356;-79
2023/06/02 01:57:37;;;;;;;;;;;;;;;17.46;49.04;98159.16;7386916;19;19933;-79
2023/06/02 02:00:05;;;;;;;;;;;;;;;17.44;50.30;98162.00;7382205;19;19937;-78
2023/06/02 02:02:41;;;;;;;;;;;;;;;17.43;50.82;98165.72;7378371;19;19927;-79
2023/06/02 02:05:07;;;;;;;;;;;;;;;17.33;49.84;98179.50;7385483;19;19923;-79
2023/06/02 02:07:42;;;;;;;;;;;;;;;17.35;50.66;98165.91;7385149;19;20546;-79
2023/06/02 02:10:10;;;;;;;;;;;;;;;17.35;51.52;98173.91;7386632;19;20378;-77
2023/06/02 02:12:36;;;;;;;;;;;;;;;17.29;52.22;98180.09;7386217;19;19923;-79
2023/06/02 02:15:04;;;;;;;;;;;;;;;17.28;51.47;98179.28;7382889;19;19950;-79
2023/06/02 02:17:34;;;;;;;;;;;;;;;17.13;49.96;98178.63;7384025;19;19923;-78
2023/06/02 02:20:00;;;;;;;;;;;;;;;17.15;51.31;98179.25;7381316;19;20341;-78
2023/06/02 02:22:27;;;;;;;;;;;;;;;17.05;50.63;98179.63;7382962;19;19925;-78
2023/06/02 02:24:54;;;;;;;;;;;;;;;17.00;51.18;98183.94;7384887;19;19925;-78
2023/06/02 02:27:20;;;;;;;;;;;;;;;16.96;50.54;98177.38;7387390;19;19946;-77
2023/06/02 02:29:47;;;;;;;;;;;;;;;16.80;50.12;98178.56;7383147;19;19939;-81
2023/06/02 02:32:14;;;;;;;;;;;;;;;16.86;50.43;98173.22;7385839;19;19974;-76
2023/06/02 02:34:41;;;;;;;;;;;;;;;16.81;51.25;98181.00;7378665;19;20663;-79
2023/06/02 02:37:10;;;;;;;;;;;;;;;16.72;50.83;98176.00;7382810;19;19914;-79
2023/06/02 02:39:37;;;;;;;;;;;;;;;16.61;51.29;98183.59;7382159;19;19979;-78
2023/06/02 02:42:07;;;;;;;;;;;;;;;16.58;50.65;98175.94;7379066;19;19914;-80
2023/06/02 02:44:34;;;;;;;;;;;;;;;16.62;51.73;98176.38;7379990;19;20277;-79
2023/06/02 02:47:02;;;;;;;;;;;;;;;16.63;51.45;98176.16;7387873;19;19915;-79
2023/06/02 02:49:28;;;;;;;;;;;;;;;16.63;51.96;98178.03;7383866;19;19926;-80
2023/06/02 02:51:58;;;;;;;;;;;;;;;16.59;51.46;98182.94;7378729;19;19943;-79
2023/06/02 02:54:28;;;;;;;;;;;;;;;16.54;52.98;98177.38;7382942;19;19927;-77
2023/06/02 02:56:55;;;;;;;;;;;;;;;16.51;52.58;98184.94;7389011;19;19983;-81
2023/06/02 02:59:22;;;;;;;;;;;;;;;16.50;51.91;98180.63;7384811;19;19928;-79
2023/06/02 03:01:49;;;;;;;;;;;;;;;16.44;52.29;98191.09;7387193;19;19914;-77
2023/06/02 03:04:22;;;;;;;;;;;;;;;16.44;53.25;98192.94;7386773;19;19943;-78
2023/06/02 03:06:52;;;;;;;;;;;;;;;16.38;53.09;98191.88;7382971;19;19951;-79
2023/06/02 03:09:21;;;;;;;;;;;;;;;16.10;52.60;98186.56;7384874;19;19911;-78
2023/06/02 03:11:48;;;;;;;;;;;;;;;16.24;53.08;98188.31;7390368;19;19943;-80
2023/06/02 03:14:18;;;;;;;;;;;;;;;16.27;54.23;98196.94;7389874;19;19918;-78
2023/06/02 03:16:44;;;;;;;;;;;;;;;16.11;54.34;98190.88;7394229;19;19919;-81
2023/06/02 03:19:14;;;;;;;;;;;;;;;16.16;54.93;98198.31;7390235;19;20008;-79
2023/06/02 03:21:44;;;;;;;;;;;;;;;16.00;54.41;98204.78;7386525;19;20348;-79
2023/06/02 03:24:15;;;;;;;;;;;;;;;16.05;54.51;98207.69;7380904;19;19923;-79
2023/06/02 03:26:44;;;;;;;;;;;;;;;15.69;54.85;98199.81;7387331;19;19928;-79
2023/06/02 03:29:13;;;;;;;;;;;;;;;15.72;54.69;98208.28;7387673;19;19915;-78
2023/06/02 03:31:44;;;;;;;;;;;;;;;15.57;55.25;98210.16;7388321;19;19923;-78
2023/06/02 03:34:15;;;;;;;;;;;;;;;15.54;55.67;98202.53;7388959;19;19986;-80
2023/06/02 03:36:46;;;;;;;;;;;;;;;15.67;56.12;98200.00;7388418;19;19923;-81
2023/06/02 03:39:16;;;;;;;;;;;;;;;15.66;55.66;98206.31;7388880;19;21215;-78
2023/06/02 03:41:44;;;;;;;;;;;;;;;15.76;56.00;98208.69;7385974;19;19927;-78
2023/06/02 03:44:11;;;;;;;;;;;;;;;15.79;56.45;98209.13;7383352;19;19923;-79
2023/06/02 03:46:38;;;;;;;;;;;;;;;15.77;56.02;98216.53;7383127;19;19918;-79
2023/06/02 03:49:06;;;;;;;;;;;;;;;15.62;55.72;98215.75;7387190;19;19927;-81
2023/06/02 03:51:32;;;;;;;;;;;;;;;15.71;55.76;98222.59;7389234;19;20308;-79
2023/06/02 03:54:01;;;;;;;;;;;;;;;15.80;56.45;98215.31;7385066;19;20337;-79
2023/06/02 03:56:29;;;;;;;;;;;;;;;15.83;56.12;98214.94;7386386;19;19930;-79
2023/06/02 03:58:55;;;;;;;;;;;;;;;15.77;56.29;98219.19;7380857;19;20219;-79
2023/06/02 04:01:24;;;;;;;;;;;;;;;15.82;56.69;98215.94;7388047;19;19922;-80
2023/06/02 04:03:54;;;;;;;;;;;;;;;15.80;56.60;98220.66;7385554;19;19978;-79
2023/06/02 04:06:21;;;;;;;;;;;;;;;15.93;56.77;98217.22;7379773;19;19915;-78
2023/06/02 04:08:48;;;;;;;;;;;;;;;16.01;58.02;98212.59;7379690;19;20030;-80
2023/06/02 04:11:17;;;;;;;;;;;;;;;16.00;57.35;98212.78;7388084;19;19911;-78
2023/06/02 04:13:46;;;;;;;;;;;;;;;15.97;56.53;98215.84;7381116;19;19918;-79
2023/06/02 04:16:13;;;;;;;;;;;;;;;15.97;57.15;98222.00;7381684;19;20329;-78
2023/06/02 04:18:40;;;;;;;;;;;;;;;16.09;57.55;98224.13;7384729;19;19929;-79
2023/06/02 04:21:08;;;;;;;;;;;;;;;16.07;57.67;98226.19;7385941;19;19915;-78
2023/06/02 04:23:37;;;;;;;;;;;;;;;16.07;58.87;98231.53;7387411;19;19925;-77
2023/06/02 04:26:04;;;;;;;;;;;;;;;16.04;57.70;98238.06;7385216;19;19998;-80
2023/06/02 04:28:37;;;;;;;;;;;;;;;16.00;58.32;98234.94;7385100;19;20280;-79
2023/06/02 04:31:06;;;;;;;;;;;;;;;15.99;58.65;98237.81;7382826;19;19934;-78
2023/06/02 04:33:37;;;;;;;;;;;;;;;16.02;58.70;98237.44;7380839;19;19915;-79
2023/06/02 04:36:07;;;;;;;;;;;;;;;16.02;58.77;98237.44;7385513;19;20278;-77
2023/06/02 04:38:35;;;;;;;;;;;;;;;15.95;59.38;98247.22;7384259;19;19915;-77
2023/06/02 04:41:06;;;;;;;;;;;;;;;15.93;59.38;98251.91;7388130;19;19919;-79
2023/06/02 04:43:34;;;;;;;;;;;;;;;15.84;59.90;98253.91;7383734;19;20321;-79
2023/06/02 04:46:06;;;;;;;;;;;;;;;15.99;60.02;98251.16;7382448;19;19915;-78
2023/06/02 04:48:37;;;;;;;;;;;;;;;16.04;59.84;98245.25;7378365;19;19963;-80
2023/06/02 04:51:07;;;;;;;;;;;;;;;16.01;59.64;98257.97;7386199;19;20272;-80
2023/06/02 04:53:36;;;;;;;;;;;;;;;15.84;59.96;98258.44;7384167;19;19915;-81
2023/06/02 04:56:03;;;;;;;;;;;;;;;15.89;60.90;98262.16;7388029;19;19915;-80
2023/06/02 04:58:32;;;;;;;;;;;;;;;15.85;60.07;98257.41;7387292;19;20578;-81
2023/06/02 05:01:02;;;;;;;;;;;;;;;15.82;60.66;98260.44;7384877;19;19919;-80
2023/06/02 05:03:29;;;;;;;;;;;;;;;15.79;60.86;98259.81;7388559;19;20645;-80
2023/06/02 05:05:56;;;;;;;;;;;;;;;15.86;61.61;98264.41;7383997;19;21094;-79
2023/06/02 05:08:23;;;;;;;;;;;;;;;15.95;61.18;98258.72;7385429;19;20254;-82
2023/06/02 05:10:50;;;;;;;;;;;;;;;15.80;60.93;98255.31;7389760;19;19934;-81
2023/06/02 05:13:17;;;;;;;;;;;;;;;15.89;60.86;98256.81;7387377;19;19927;-81
2023/06/02 05:15:47;;;;;;;;;;;;;;;15.79;60.97;98262.47;7389353;19;20503;-79
2023/06/02 05:18:14;;;;;;;;;;;;;;;15.74;61.10;98266.75;7387402;19;20325;-81
2023/06/02 05:20:42;;;;;;;;;;;;;;;15.68;61.41;98273.63;7387124;19;19927;-80
2023/06/02 05:23:09;;;;;;;;;;;;;;;15.89;61.25;98278.16;7380002;19;19919;-81
2023/06/02 05:25:37;;;;;;;;;;;;;;;15.89;61.55;98280.00;7387700;19;19923;-88
2023/06/02 05:28:04;;;;;;;;;;;;;;;15.80;61.81;98285.50;7387181;19;19959;-80
2023/06/02 05:30:31;;;;;;;;;;;;;;;15.75;62.14;98274.56;7388345;19;19936;-83
2023/06/02 05:32:57;;;;;;;;;;;;;;;15.82;62.00;98266.59;7388196;19;19919;-80
2023/06/02 05:35:26;;;;;;;;;;;;;;;15.92;61.74;98260.94;7387544;19;20386;-81
2023/06/02 05:37:53;;;;;;;;;;;;;;;15.91;61.85;98273.47;7383467;19;19982;-80
2023/06/02 05:40:20;;;;;;;;;;;;;;;15.83;61.75;98281.63;7385096;19;19915;-81
2023/06/02 05:42:47;;;;;;;;;;;;;;;15.70;62.29;98279.66;7388213;19;19959;-79
2023/06/02 05:45:16;;;;;;;;;;;;;;;15.87;62.21;98284.72;7385896;19;19928;-81
2023/06/02 05:47:46;;;;;;;;;;;;;;;15.89;61.82;98272.84;7383503;19;19911;-80
2023/06/02 05:50:14;;;;;;;;;;;;;;;15.82;61.85;98276.44;7387250;19;19922;-81
2023/06/02 05:52:44;;;;;;;;;;;;;;;16.02;62.28;98272.13;7385747;19;19919;-79
2023/06/02 05:55:11;;;;;;;;;;;;;;;15.82;62.15;98281.78;7385706;19;19919;-79
2023/06/02 05:57:37;;;;;;;;;;;;;;;15.94;61.84;98278.41;7382498;19;19939;-80
2023/06/02 06:00:07;;;;;;;;;;;;;;;16.09;61.85;98281.00;7385607;19;19918;-77
2023/06/02 06:02:39;;;;;;;;;;;;;;;16.11;61.75;98283.47;7385948;19;19926;-79
2023/06/02 06:05:11;;;;;;;;;;;;;;;16.14;61.32;98280.41;7383844;19;19922;-79
2023/06/02 06:07:42;;;;;;;;;;;;;;;16.30;61.43;98273.97;7382088;19;19922;-77
2023/06/02 06:10:14;;;;;;;;;;;;;;;16.15;61.50;98277.56;7381723;19;19930;-80
2023/06/02 06:12:42;;;;;;;;;;;;;;;16.29;61.40;98278.47;7379210;19;19914;-78
2023/06/02 06:15:09;;;;;;;;;;;;;;;16.10;61.44;98276.50;7385785;19;19915;-82
2023/06/02 06:17:45;;;;;;;;;;;;;;;16.15;61.60;98285.56;7384843;19;19921;-78
2023/06/02 06:20:12;;;;;;;;;;;;;;;16.10;61.95;98279.16;7384062;19;19935;-80
2023/06/02 06:22:42;;;;;;;;;;;;;;;16.26;62.00;98283.38;7380841;19;19927;-79
2023/06/02 06:25:11;;;;;;;;;;;;;;;16.28;61.87;98292.03;7385632;19;19919;-79
2023/06/02 06:27:39;;;;;;;;;;;;;;;16.23;61.63;98288.09;7381926;19;19919;-82
2023/06/02 06:30:06;;;;;;;;;;;;;;;16.27;61.55;98299.19;7375067;19;20267;-79
2023/06/02 06:32:34;;;;;;;;;;;;;;;16.30;62.24;98292.66;7384983;19;19929;-82
2023/06/02 06:35:01;;;;;;;;;;;;;;;16.40;61.68;98293.13;7380867;19;20400;-79
2023/06/02 06:37:28;;;;;;;;;;;;;;;16.48;61.48;98295.66;7386688;19;19939;-77
2023/06/02 06:40:00;;;;;;;;;;;;;;;16.56;61.45;98300.88;7381263;19;19947;-79
2023/06/02 06:42:29;;;;;;;;;;;;;;;16.58;61.18;98295.31;7386741;19;19974;-80
2023/06/02 06:45:01;;;;;;;;;;;;;;;16.53;60.39;98298.56;7378486;19;19938;-84
2023/06/02 06:47:28;;;;;;;;;;;;;;;16.65;60.22;98299.66;7377189;19;19927;-77
2023/06/02 06:49:55;;;;;;;;;;;;;;;16.79;60.71;98297.09;7381774;19;19907;-81
2023/06/02 06:52:23;;;;;;;;;;;;;;;16.65;59.98;98304.19;7387496;19;19919;-80
2023/06/02 06:54:50;;;;;;;;;;;;;;;16.81;60.33;98308.44;7384800;19;20020;-78
2023/06/02 06:57:17;;;;;;;;;;;;;;;16.72;60.44;98313.09;7386523;19;20197;-77
2023/06/02 06:59:48;;;;;;;;;;;;;;;16.82;60.52;98315.41;7379126;19;19983;-78
2023/06/02 07:02:14;;;;;;;;;;;;;;;16.86;60.38;98311.34;7380063;19;19918;-77
2023/06/02 07:04:42;;;;;;;;;;;;;;;16.75;60.56;98323.38;7383011;19;19932;-84
2023/06/02 07:07:08;;;;;;;;;;;;;;;16.85;60.36;98315.00;7376113;19;19929;-78
2023/06/02 07:09:35;;;;;;;;;;;;;;;16.82;60.65;98315.41;7384771;19;19986;-80
2023/06/02 07:12:02;;;;;;;;;;;;;;;16.85;60.03;98315.00;7383401;19;19922;-78
2023/06/02 07:14:30;;;;;;;;;;;;;;;17.00;60.37;98305.03;7383737;19;19939;-77
2023/06/02 07:16:56;;;;;;;;;;;;;;;16.93;60.21;98311.34;7384189;19;19923;-80
2023/06/02 07:19:23;;;;;;;;;;;;;;;16.93;60.34;98314.03;7379910;19;19922;-80
2023/06/02 07:21:50;;;;;;;;;;;;;;;16.90;60.13;98312.56;7385079;19;19918;-78
2023/06/02 07:24:16;;;;;;;;;;;;;;;16.99;60.12;98311.41;7385342;19;19917;-79
2023/06/02 07:26:43;;;;;;;;;;;;;;;16.94;60.73;98310.34;7386242;19;19932;-81
2023/06/02 07:29:10;;;;;;;;;;;;;;;16.94;60.21;98318.38;7381494;19;20472;-77
2023/06/02 07:31:39;;;;;;;;;;;;;;;17.06;60.05;98306.06;7386590;19;19939;-79
2023/06/02 07:34:06;;;;;;;;;;;;;;;17.04;59.71;98308.13;7383138;19;19925;-80
2023/06/02 07:36:34;;;;;;;;;;;;;;;17.03;59.71;98309.97;7383160;19;19919;-80
2023/06/02 07:39:00;;;;;;;;;;;;;;;16.93;59.92;98304.19;7383177;19;19922;-77
2023/06/02 07:41:27;;;;;;;;;;;;;;;16.94;60.60;98305.00;7386405;19;19922;-80
2023/06/02 07:43:54;;;;;;;;;;;;;;;17.05;60.05;98307.91;7391145;19;19923;-79
2023/06/02 07:46:21;;;;;;;;;;;;;;;17.06;60.53;98303.41;7392338;19;19986;-79
2023/06/02 07:48:47;;;;;;;;;;;;;;;17.06;59.50;98304.25;7387320;19;19911;-78
2023/06/02 07:51:14;;;;;;;;;;;;;;;16.71;60.50;98314.09;7391324;19;21368;-79
2023/06/02 07:53:41;;;;;;;;;;;;;;;16.71;60.74;98308.75;7389070;19;19984;-82
2023/06/02 07:56:07;;;;;;;;;;;;;;;16.93;60.43;98306.84;7392863;19;20454;-82
2023/06/02 07:58:35;;;;;;;;;;;;;;;16.97;59.83;98307.28;7391721;19;19926;-83
2023/06/02 08:01:02;;;;;;;;;;;;;;;17.17;59.63;98312.69;7393175;19;19936;-80
2023/06/02 08:03:29;;;;;;;;;;;;;;;17.33;59.06;98309.69;7390686;19;20348;-79
2023/06/02 08:05:56;;;;;;;;;;;;;;;17.47;59.71;98303.34;7391124;19;19929;-80
2023/06/02 08:08:23;;;;;;;;;;;;;;;17.40;58.41;98305.16;7383182;19;20464;-79
2023/06/02 08:10:50;;;;;;;;;;;;;;;17.52;58.83;98311.59;7388328;19;19925;-80
2023/06/02 08:13:17;;;;;;;;;;;;;;;17.48;58.82;98313.03;7389314;19;19919;-80
2023/06/02 08:15:44;;;;;;;;;;;;;;;17.45;59.11;98316.09;7392061;19;19930;-82
2023/06/02 08:18:18;;;;;;;;;;;;;;;17.53;58.95;98304.38;7392928;19;19983;-80
2023/06/02 08:20:45;;;;;;;;;;;;;;;17.58;58.02;98307.28;7394318;19;19939;-81
2023/06/02 08:23:12;;;;;;;;;;;;;;;17.73;58.01;98313.28;7391066;19;19915;-80
2023/06/02 08:25:39;;;;;;;;;;;;;;;17.68;58.21;98310.38;7388886;19;20522;-79
2023/06/02 08:28:09;;;;;;;;;;;;;;;17.69;58.91;98303.19;7386224;19;19919;-81
2023/06/02 08:30:36;;;;;;;;;;;;;;;17.85;58.89;98305.53;7391965;19;19922;-83
2023/06/02 08:33:05;;;;;;;;;;;;;;;17.98;57.96;98304.69;7391481;19;19919;-78
2023/06/02 08:35:38;;;;;;;;;;;;;;;17.91;57.42;98299.34;7392637;19;19959;-79
2023/06/02 08:38:07;;;;;;;;;;;;;;;18.05;57.18;98310.06;7392935;19;19914;-79
2023/06/02 08:40:36;;;;;;;;;;;;;;;17.95;56.62;98305.94;7393684;19;20115;-80
2023/06/02 08:43:08;;;;;;;;;;;;;;;18.04;58.02;98305.75;7385780;19;19927;-80
2023/06/02 08:45:35;;;;;;;;;;;;;;;18.25;56.89;98292.16;7383161;19;19918;-78
2023/06/02 08:48:03;;;;;;;;;;;;;;;18.24;57.59;98301.19;7389245;19;20305;-80
2023/06/02 08:50:35;;;;;;;;;;;;;;;18.18;57.05;98304.72;7391384;19;19927;-83
2023/06/02 08:53:03;;;;;;;;;;;;;;;18.19;57.22;98291.13;7384364;19;19914;-82
2023/06/02 08:55:32;;;;;;;;;;;;;;;18.36;57.46;98298.72;7390229;19;19925;-78
2023/06/02 08:57:59;;;;;;;;;;;;;;;18.41;57.37;98305.09;7382922;19;20337;-83
2023/06/02 09:00:26;;;;;;;;;;;;;;;18.49;58.23;98296.03;7391456;19;19915;-82
2023/06/02 09:02:56;;;;;;;;;;;;;;;18.46;56.96;98298.28;7390542;19;20358;-85
2023/06/02 09:05:24;;;;;;;;;;;;;;;18.56;57.18;98301.38;7388582;19;19906;-79
2023/06/02 09:08:07;;;;;;;;;;;;;;;18.57;57.01;98300.34;7387242;19;20290;-81
2023/06/02 09:10:39;;;;;;;;;;;;;;;18.65;56.46;98300.13;7390693;19;19935;-80
2023/06/02 09:13:07;;;;;;;;;;;;;;;18.84;56.56;98295.78;7387408;19;19911;-78
2023/06/02 09:15:35;;;;;;;;;;;;;;;18.86;55.99;98293.72;7385738;19;19925;-81
2023/06/02 09:18:09;;;;;;;;;;;;;;;18.93;56.17;98299.03;7391424;19;19915;-78
2023/06/02 09:20:38;;;;;;;;;;;;;;;19.09;55.22;98295.91;7391558;19;19911;-79
2023/06/02 09:23:05;;;;;;;;;;;;;;;19.27;55.51;98306.78;7382577;19;19925;-82
2023/06/02 09:25:33;;;;;;;;;;;;;;;19.34;53.71;98298.69;7388762;19;19918;-81
2023/06/02 09:28:00;;;;;;;;;;;;;;;19.34;52.47;98301.38;7390414;19;19990;-80
2023/06/02 09:30:31;;;;;;;;;;;;;;;19.35;53.15;98304.84;7387468;19;19923;-79
2023/06/02 09:32:58;;;;;;;;;;;;;;;19.17;53.86;98300.19;7386265;19;19918;-81
2023/06/02 09:35:35;;;;;;;;;;;;;;;19.05;53.89;98302.72;7392852;19;20460;-79
2023/06/02 09:38:07;;;;;;;;;;;;;;;19.15;53.75;98300.41;7389344;19;19918;-81
2023/06/02 09:40:35;;;;;;;;;;;;;;;19.19;54.12;98307.00;7393651;19;19930;-78
2023/06/02 09:43:03;;;;;;;;;;;;;;;19.35;54.16;98294.13;7385036;19;19933;-78
2023/06/02 09:45:30;;;;;;;;;;;;;;;19.38;53.43;98288.34;7388002;19;19915;-79
2023/06/02 09:47:57;;;;;;;;;;;;;;;19.60;53.54;98289.66;7386185;19;19919;-79
2023/06/02 09:50:31;;;;;;;;;;;;;;;19.95;53.22;98292.75;7382556;19;19915;-81
2023/06/02 09:53:03;;;;;;;;;;;;;;;19.85;52.29;98288.91;7386916;19;19915;-79
2023/06/02 09:55:33;;;;;;;;;;;;;;;20.36;51.63;98285.19;7398322;19;19913;-80
2023/06/02 09:58:00;;;;;;;;;;;;;;;20.60;50.31;98297.00;7399211;19;19918;-80
2023/06/02 10:00:27;;;;;;;;;;;;;;;20.85;49.14;98286.16;7401089;19;19929;-78
2023/06/02 10:02:54;;;;;;;;;;;;;;;21.35;48.52;98287.84;7397604;19;19922;-80
2023/06/02 10:05:22;;;;;;;;;;;;;;;21.39;48.67;98289.06;7391614;19;21108;-78
2023/06/02 10:07:58;;;;;;;;;;;;;;;21.69;48.18;98284.47;7391143;19;19923;-78
2023/06/02 10:10:35;;;;;;;;;;;;;;;21.56;47.18;98281.97;7399307;19;19977;-79
2023/06/02 10:13:17;;;;;;;;;;;;;;;21.72;46.77;98277.81;7388816;19;19925;-81
2023/06/02 10:15:47;;;;;;;;;;;;;;;22.12;46.95;98285.31;7389298;19;19975;-82
2023/06/02 10:18:19;;;;;;;;;;;;;;;21.56;47.05;98281.16;7389402;19;20250;-77
2023/06/02 10:21:04;;;;;;;;;;;;;;;21.96;47.14;98273.34;7385596;19;19918;-81
2023/06/02 10:24:07;;;;;;;;;;;;;;;22.26;47.57;98273.28;7381284;19;20315;-78
2023/06/02 10:26:53;;;;;;;;;;;;;;;22.47;45.27;98271.06;7380044;19;19919;-79
2023/06/02 10:29:19;;;;;;;;;;;;;;;22.62;44.85;98276.78;7382817;19;20645;-78
2023/06/02 10:31:54;;;;;;;;;;;;;;;22.65;44.25;98279.00;7389236;19;19922;-75
2023/06/02 10:34:41;;;;;;;;;;;;;;;22.35;44.44;98271.03;7386100;19;20337;-82
2023/06/02 10:37:07;;;;;;;;;;;;;;;22.04;45.84;98274.88;7387216;19;19919;-77
2023/06/02 10:39:34;;;;;;;;;;;;;;;21.46;46.46;98263.72;7382840;19;20340;-80
2023/06/02 10:42:08;;;;;;;;;;;;;;;21.41;46.95;98260.88;7384616;19;19918;-77
2023/06/02 10:44:34;;;;;;;;;;;;;;;21.25;47.02;98251.56;7384579;19;20313;-78
2023/06/02 10:47:17;;;;;;;;;;;;;;;21.26;46.50;98263.13;7381839;19;20269;-82
2023/06/02 10:49:58;;;;;;;;;;;;;;;21.24;47.48;98249.06;7385147;19;19910;-81
2023/06/02 10:52:29;;;;;;;;;;;;;;;21.22;48.58;98256.53;7383015;19;20306;-80
2023/06/02 10:55:08;;;;;;;;;;;;;;;21.25;48.20;98248.03;7382959;19;19927;-79
2023/06/02 10:57:47;;;;;;;;;;;;;;;21.21;46.99;98258.41;7383398;19;19936;-80
2023/06/02 11:00:32;;;;;;;;;;;;;;;21.37;47.79;98265.03;7386319;19;20611;-82
2023/06/02 11:02:59;;;;;;;;;;;;;;;21.47;47.53;98259.97;7385269;19;19947;-80
2023/06/02 11:05:27;;;;;;;;;;;;;;;21.41;47.11;98254.69;7383282;19;19997;-78
2023/06/02 11:08:15;;;;;;;;;;;;;;;21.64;46.73;98254.78;7384846;19;19922;-79
2023/06/02 11:10:53;;;;;;;;;;;;;;;21.56;46.04;98249.69;7387406;19;19921;-82
2023/06/02 11:13:20;;;;;;;;;;;;;;;21.51;46.70;98248.72;7378826;19;19919;-80
2023/06/02 11:15:53;;;;;;;;;;;;;;;21.68;46.83;98255.13;7389559;19;19919;-84
2023/06/02 11:18:25;;;;;;;;;;;;;;;21.57;44.50;98251.34;7394715;19;20262;-79
2023/06/02 11:20:53;;;;;;;;;;;;;;;21.56;45.58;98247.00;7390441;19;19929;-79
2023/06/02 11:23:20;;;;;;;;;;;;;;;21.63;45.54;98252.28;7389032;19;19921;-79
2023/06/02 11:25:47;;;;;;;;;;;;;;;21.33;45.49;98255.78;7394537;19;19987;-80
2023/06/02 11:28:20;;;;;;;;;;;;;;;21.57;46.49;98250.53;7387155;19;19941;-77
2023/06/02 11:30:47;;;;;;;;;;;;;;;21.68;45.28;98249.72;7385170;19;19919;-80
2023/06/02 11:33:14;;;;;;;;;;;;;;;21.69;43.95;98246.78;7392520;19;19919;-79
2023/06/02 11:35:40;;;;;;;;;;;;;;;21.76;45.15;98245.88;7394083;19;19914;-82
2023/06/02 11:38:08;;;;;;;;;;;;;;;21.91;46.05;98247.09;7388250;19;19911;-80
2023/06/02 11:40:36;;;;;;;;;;;;;;;21.79;45.28;98240.03;7390343;19;19926;-79
2023/06/02 11:43:03;;;;;;;;;;;;;;;21.83;43.35;98239.34;7388899;19;20653;-81
2023/06/02 11:45:30;;;;;;;;;;;;;;;21.81;43.37;98243.31;7385948;19;19996;-82
2023/06/02 11:47:57;;;;;;;;;;;;;;;21.89;43.92;98242.97;7391139;19;19954;-77
2023/06/02 11:50:24;;;;;;;;;;;;;;;21.80;43.59;98242.50;7389504;19;19919;-79
2023/06/02 11:52:51;;;;;;;;;;;;;;;21.96;44.34;98237.47;7395447;19;19922;-84
2023/06/02 11:55:20;;;;;;;;;;;;;;;21.94;42.57;98236.91;7393173;19;20361;-82
2023/06/02 11:57:47;;;;;;;;;;;;;;;21.84;44.04;98235.59;7397894;19;19918;-79
2023/06/02 12:00:16;;;;;;;;;;;;;;;21.99;45.57;98229.78;7390476;19;19918;-81
2023/06/02 12:02:44;;;;;;;;;;;;;;;22.08;43.50;98225.66;7383094;19;19951;-78
2023/06/02 12:05:28;;;;;;;;;;;;;;;22.13;40.22;98225.78;7390571;19;22276;-83
2023/06/02 12:07:55;;;;;;;;;;;;;;;22.31;40.40;98224.88;7392375;19;19919;-79
2023/06/02 12:10:29;;;;;;;;;;;;;;;22.20;40.42;98219.50;7390485;19;19939;-78
2023/06/02 12:12:57;;;;;;;;;;;;;;;22.57;41.63;98217.38;7392803;19;19927;-79
2023/06/02 12:15:31;;;;;;;;;;;;;;;22.78;38.73;98222.13;7390856;19;19915;-78
2023/06/02 12:18:02;;;;;;;;;;;;;;;22.69;38.71;98215.44;7387671;19;19917;-79
2023/06/02 12:20:39;;;;;;;;;;;;;;;22.94;37.57;98225.13;7386320;19;19922;-79
2023/06/02 12:23:06;;;;;;;;;;;;;;;22.96;38.08;98220.28;7389150;19;19930;-78
2023/06/02 12:25:33;;;;;;;;;;;;;;;22.51;36.22;98210.19;7392699;19;19915;-81
2023/06/02 12:28:07;;;;;;;;;;;;;;;22.62;36.06;98222.88;7387342;19;19946;-78
2023/06/02 12:30:34;;;;;;;;;;;;;;;22.67;35.89;98216.72;7392650;19;19919;-78
2023/06/02 12:33:04;;;;;;;;;;;;;;;22.61;36.97;98221.22;7389527;19;19942;-81
2023/06/02 12:35:31;;;;;;;;;;;;;;;22.60;37.32;98207.97;7386805;19;19918;-79
2023/06/02 12:37:58;;;;;;;;;;;;;;;22.29;37.49;98216.19;7386174;19;19923;-80
2023/06/02 12:40:25;;;;;;;;;;;;;;;22.44;37.73;98212.22;7382726;19;20674;-76
2023/06/02 12:42:51;;;;;;;;;;;;;;;22.68;38.60;98213.00;7388850;19;20005;-79
2023/06/02 12:45:18;;;;;;;;;;;;;;;22.56;38.50;98213.00;7392929;19;19926;-75
2023/06/02 12:47:47;;;;;;;;;;;;;;;22.59;35.94;98217.91;7393875;19;19918;-80
2023/06/02 12:50:15;;;;;;;;;;;;;;;22.84;36.51;98214.13;7390269;19;19925;-84
2023/06/02 12:52:42;;;;;;;;;;;;;;;23.03;36.48;98215.63;7385893;19;20691;-80
2023/06/02 12:55:09;;;;;;;;;;;;;;;23.17;35.71;98208.91;7388128;19;19921;-78
2023/06/02 12:57:36;;;;;;;;;;;;;;;23.14;36.08;98203.94;7395024;19;19933;-81